sensor_id;sensor_type;location;lat;lon;timestamp;pressure;altitude;pressure_sealevel;temperature;humidity
75312;BME280;63906;55.686;37.532;2022-10-16T00:00:40;100681.13;;;5.28;63.05
75312;BME280;63906;55.686;37.532;2022-10-16T00:05:43;100734.53;;;5.45;63.20
75312;BME280;63906;55.686;37.532;2022-10-16T00:10:44;100725.75;;;5.46;62.93
75312;BME280;63906;55.686;37.532;2022-10-16T00:15:44;100742.75;;;5.40;63.38
75312;BME280;63906;55.686;37.532;2022-10-16T00:20:44;100708.03;;;5.19;63.37
75312;BME280;63906;55.686;37.532;2022-10-16T00:25:54;100695.03;;;5.07;63.47
75312;BME280;63906;55.686;37.532;2022-10-16T00:30:55;100744.94;;;5.35;63.80
75312;BME280;63906;55.686;37.532;2022-10-16T00:35:58;100747.41;;;5.36;64.17
75312;BME280;63906;55.686;37.532;2022-10-16T00:40:59;100736.22;;;5.25;63.94
75312;BME280;63906;55.686;37.532;2022-10-16T00:46:00;100745.88;;;5.13;64.17
75312;BME280;63906;55.686;37.532;2022-10-16T00:51:02;100745.16;;;5.22;63.99
75312;BME280;63906;55.686;37.532;2022-10-16T00:56:03;100753.91;;;5.21;64.26
75312;BME280;63906;55.686;37.532;2022-10-16T01:01:04;100749.28;;;5.25;64.32
75312;BME280;63906;55.686;37.532;2022-10-16T01:06:12;100766.53;;;5.16;64.06
75312;BME280;63906;55.686;37.532;2022-10-16T01:21:37;100762.31;;;5.04;64.54
75312;BME280;63906;55.686;37.532;2022-10-16T01:32:54;100765.16;;;5.01;64.61
75312;BME280;63906;55.686;37.532;2022-10-16T01:38:02;100754.28;;;4.96;64.52
75312;BME280;63906;55.686;37.532;2022-10-16T01:43:10;100753.25;;;4.87;64.30
75312;BME280;63906;55.686;37.532;2022-10-16T01:48:16;100785.09;;;5.02;65.02
75312;BME280;63906;55.686;37.532;2022-10-16T01:53:18;100787.69;;;5.02;64.90
75312;BME280;63906;55.686;37.532;2022-10-16T01:58:18;100756.72;;;4.76;64.93
75312;BME280;63906;55.686;37.532;2022-10-16T02:03:19;100780.63;;;4.93;64.81
75312;BME280;63906;55.686;37.532;2022-10-16T02:08:22;100783.94;;;4.95;64.73
75312;BME280;63906;55.686;37.532;2022-10-16T02:13:30;100784.44;;;4.89;64.73
75312;BME280;63906;55.686;37.532;2022-10-16T02:18:31;100785.84;;;4.93;65.08
75312;BME280;63906;55.686;37.532;2022-10-16T02:23:43;100758.88;;;4.71;65.46
75312;BME280;63906;55.686;37.532;2022-10-16T02:28:54;100792.06;;;4.80;65.22
75312;BME280;63906;55.686;37.532;2022-10-16T02:33:58;100792.44;;;4.65;65.38
75312;BME280;63906;55.686;37.532;2022-10-16T02:38:59;100800.16;;;4.66;65.83
75312;BME280;63906;55.686;37.532;2022-10-16T02:44:01;100796.38;;;4.59;66.06
75312;BME280;63906;55.686;37.532;2022-10-16T02:49:01;100787.16;;;4.55;65.35
75312;BME280;63906;55.686;37.532;2022-10-16T02:54:03;100798.28;;;4.57;66.20
75312;BME280;63906;55.686;37.532;2022-10-16T02:59:03;100798.75;;;4.62;66.00
75312;BME280;63906;55.686;37.532;2022-10-16T03:04:04;100795.44;;;4.60;65.86
75312;BME280;63906;55.686;37.532;2022-10-16T03:09:04;100813.31;;;4.65;65.82
75312;BME280;63906;55.686;37.532;2022-10-16T03:14:05;100811.56;;;4.54;66.16
75312;BME280;63906;55.686;37.532;2022-10-16T03:19:05;100806.25;;;4.44;65.86
75312;BME280;63906;55.686;37.532;2022-10-16T03:24:06;100810.28;;;4.37;66.56
75312;BME280;63906;55.686;37.532;2022-10-16T03:29:06;100823.69;;;4.32;66.73
75312;BME280;63906;55.686;37.532;2022-10-16T03:34:07;100825.59;;;4.30;66.25
75312;BME280;63906;55.686;37.532;2022-10-16T03:39:08;100829.13;;;4.29;67.16
75312;BME280;63906;55.686;37.532;2022-10-16T03:44:08;100803.78;;;4.20;66.87
75312;BME280;63906;55.686;37.532;2022-10-16T03:49:08;100832.66;;;4.28;66.90
75312;BME280;63906;55.686;37.532;2022-10-16T03:54:09;100798.22;;;4.14;66.74
75312;BME280;63906;55.686;37.532;2022-10-16T03:59:10;100830.56;;;4.22;67.06
75312;BME280;63906;55.686;37.532;2022-10-16T04:04:10;100824.88;;;4.17;66.73
75312;BME280;63906;55.686;37.532;2022-10-16T04:09:11;100807.25;;;3.98;67.36
75312;BME280;63906;55.686;37.532;2022-10-16T04:14:12;100810.66;;;3.88;68.07
75312;BME280;63906;55.686;37.532;2022-10-16T04:19:12;100824.53;;;3.99;68.11
75312;BME280;63906;55.686;37.532;2022-10-16T04:24:13;100806.16;;;3.90;67.51
75312;BME280;63906;55.686;37.532;2022-10-16T04:29:13;100841.94;;;4.10;67.68
75312;BME280;63906;55.686;37.532;2022-10-16T04:34:14;100837.44;;;4.12;67.87
75312;BME280;63906;55.686;37.532;2022-10-16T04:39:15;100843.34;;;4.14;67.82
75312;BME280;63906;55.686;37.532;2022-10-16T04:44:16;100849.50;;;4.13;67.72
75312;BME280;63906;55.686;37.532;2022-10-16T04:49:17;100841.47;;;4.16;67.82
75312;BME280;63906;55.686;37.532;2022-10-16T04:54:17;100843.59;;;4.22;67.20
75312;BME280;63906;55.686;37.532;2022-10-16T04:59:19;100854.00;;;4.33;67.05
75312;BME280;63906;55.686;37.532;2022-10-16T05:04:19;100845.25;;;4.23;67.25
75312;BME280;63906;55.686;37.532;2022-10-16T05:09:20;100863.59;;;4.22;67.26
75312;BME280;63906;55.686;37.532;2022-10-16T05:14:21;100850.00;;;4.29;67.36
75312;BME280;63906;55.686;37.532;2022-10-16T05:19:21;100845.13;;;4.47;66.31
75312;BME280;63906;55.686;37.532;2022-10-16T05:24:22;100862.38;;;4.59;66.32
75312;BME280;63906;55.686;37.532;2022-10-16T05:29:22;100862.16;;;4.63;66.06
75312;BME280;63906;55.686;37.532;2022-10-16T05:34:23;100862.50;;;4.69;65.95
75312;BME280;63906;55.686;37.532;2022-10-16T05:39:23;100865.81;;;4.71;65.64
75312;BME280;63906;55.686;37.532;2022-10-16T05:44:24;100859.06;;;4.69;65.91
75312;BME280;63906;55.686;37.532;2022-10-16T05:49:24;100870.78;;;4.85;65.47
75312;BME280;63906;55.686;37.532;2022-10-16T05:54:25;100883.56;;;4.89;65.75
75312;BME280;63906;55.686;37.532;2022-10-16T05:59:25;100875.84;;;4.98;65.27
75312;BME280;63906;55.686;37.532;2022-10-16T06:04:26;100872.47;;;5.07;65.13
75312;BME280;63906;55.686;37.532;2022-10-16T06:09:26;100885.66;;;5.06;64.98
75312;BME280;63906;55.686;37.532;2022-10-16T06:14:27;100863.13;;;5.05;65.02
75312;BME280;63906;55.686;37.532;2022-10-16T06:19:27;100880.78;;;5.12;65.04
75312;BME280;63906;55.686;37.532;2022-10-16T06:24:28;100875.09;;;5.39;64.68
75312;BME280;63906;55.686;37.532;2022-10-16T06:29:28;100894.72;;;5.55;64.03
75312;BME280;63906;55.686;37.532;2022-10-16T06:34:29;100876.19;;;5.58;63.67
75312;BME280;63906;55.686;37.532;2022-10-16T06:39:29;100893.34;;;5.72;63.39
75312;BME280;63906;55.686;37.532;2022-10-16T06:44:30;100874.63;;;5.66;62.98
75312;BME280;63906;55.686;37.532;2022-10-16T06:49:30;100882.00;;;5.82;62.91
75312;BME280;63906;55.686;37.532;2022-10-16T06:54:31;100862.03;;;5.81;63.37
75312;BME280;63906;55.686;37.532;2022-10-16T06:59:31;100865.31;;;5.94;62.73
75312;BME280;63906;55.686;37.532;2022-10-16T07:04:32;100893.56;;;6.31;61.94
75312;BME280;63906;55.686;37.532;2022-10-16T07:09:32;100872.22;;;6.26;61.25
75312;BME280;63906;55.686;37.532;2022-10-16T07:14:33;100895.41;;;6.40;61.79
75312;BME280;63906;55.686;37.532;2022-10-16T07:19:34;100898.25;;;6.68;60.52
75312;BME280;63906;55.686;37.532;2022-10-16T07:24:34;100903.63;;;6.76;60.36
75312;BME280;63906;55.686;37.532;2022-10-16T07:29:35;100882.16;;;6.72;60.60
75312;BME280;63906;55.686;37.532;2022-10-16T07:34:35;100903.84;;;7.04;60.45
75312;BME280;63906;55.686;37.532;2022-10-16T07:39:36;100902.22;;;7.22;60.27
75312;BME280;63906;55.686;37.532;2022-10-16T07:44:36;100916.44;;;7.29;60.25
75312;BME280;63906;55.686;37.532;2022-10-16T07:49:37;100899.06;;;7.47;60.15
75312;BME280;63906;55.686;37.532;2022-10-16T07:54:37;100897.53;;;7.74;59.22
75312;BME280;63906;55.686;37.532;2022-10-16T07:59:38;100881.78;;;7.83;58.54
75312;BME280;63906;55.686;37.532;2022-10-16T08:04:38;100899.53;;;7.99;58.29
75312;BME280;63906;55.686;37.532;2022-10-16T08:09:39;100887.91;;;8.12;58.25
75312;BME280;63906;55.686;37.532;2022-10-16T08:14:39;100884.25;;;8.42;57.08
75312;BME280;63906;55.686;37.532;2022-10-16T08:19:40;100889.25;;;8.62;56.46
75312;BME280;63906;55.686;37.532;2022-10-16T08:24:43;100885.28;;;8.58;56.46
75312;BME280;63906;55.686;37.532;2022-10-16T08:29:44;100901.19;;;8.84;55.78
75312;BME280;63906;55.686;37.532;2022-10-16T08:34:44;100899.56;;;9.01;55.50
75312;BME280;63906;55.686;37.532;2022-10-16T08:39:45;100893.13;;;9.13;54.87
75312;BME280;63906;55.686;37.532;2022-10-16T08:50:18;100886.97;;;9.40;55.10
75312;BME280;63906;55.686;37.532;2022-10-16T08:55:46;100871.03;;;9.42;53.46
75312;BME280;63906;55.686;37.532;2022-10-16T09:00:50;100888.41;;;9.79;52.83
75312;BME280;63906;55.686;37.532;2022-10-16T09:11:03;100897.25;;;10.21;51.92
75312;BME280;63906;55.686;37.532;2022-10-16T09:16:19;100877.75;;;10.32;51.69
75312;BME280;63906;55.686;37.532;2022-10-16T09:21:26;100875.19;;;10.48;51.04
75312;BME280;63906;55.686;37.532;2022-10-16T09:26:28;100869.88;;;10.74;49.33
75312;BME280;63906;55.686;37.532;2022-10-16T09:31:29;100865.78;;;10.88;48.06
75312;BME280;63906;55.686;37.532;2022-10-16T09:36:39;100862.50;;;11.11;48.64
75312;BME280;63906;55.686;37.532;2022-10-16T09:41:44;100870.63;;;11.25;48.28
75312;BME280;63906;55.686;37.532;2022-10-16T09:46:45;100873.25;;;11.58;47.84
75312;BME280;63906;55.686;37.532;2022-10-16T09:51:45;100872.59;;;11.64;45.91
75312;BME280;63906;55.686;37.532;2022-10-16T09:56:48;100864.41;;;12.70;44.74
75312;BME280;63906;55.686;37.532;2022-10-16T10:01:55;100840.22;;;14.32;40.37
75312;BME280;63906;55.686;37.532;2022-10-16T10:06:57;100839.25;;;15.48;38.32
75312;BME280;63906;55.686;37.532;2022-10-16T10:11:59;100849.50;;;16.14;36.02
75312;BME280;63906;55.686;37.532;2022-10-16T10:22:42;100821.25;;;18.46;32.34
75312;BME280;63906;55.686;37.532;2022-10-16T10:28:56;100815.50;;;18.88;32.43
75312;BME280;63906;55.686;37.532;2022-10-16T10:44:16;100841.53;;;19.24;30.13
75312;BME280;63906;55.686;37.532;2022-10-16T11:10:27;100834.94;;;15.47;36.42
75312;BME280;63906;55.686;37.532;2022-10-16T11:15:32;100823.84;;;14.94;36.97
75312;BME280;63906;55.686;37.532;2022-10-16T11:20:46;100830.56;;;14.54;38.21
75312;BME280;63906;55.686;37.532;2022-10-16T11:25:50;100825.69;;;13.69;39.24
75312;BME280;63906;55.686;37.532;2022-10-16T11:31:29;100835.19;;;12.94;41.29
75312;BME280;63906;55.686;37.532;2022-10-16T11:36:44;100807.75;;;12.42;42.45
75312;BME280;63906;55.686;37.532;2022-10-16T11:42:12;100826.34;;;12.17;43.20
75312;BME280;63906;55.686;37.532;2022-10-16T11:47:24;100814.88;;;11.94;44.03
75312;BME280;63906;55.686;37.532;2022-10-16T11:53:21;100825.75;;;11.99;44.13
75312;BME280;63906;55.686;37.532;2022-10-16T11:58:25;100822.94;;;11.92;44.43
75312;BME280;63906;55.686;37.532;2022-10-16T12:03:35;100791.50;;;11.66;44.56
75312;BME280;63906;55.686;37.532;2022-10-16T12:08:39;100821.16;;;11.84;44.10
75312;BME280;63906;55.686;37.532;2022-10-16T12:13:40;100813.88;;;11.78;44.56
75312;BME280;63906;55.686;37.532;2022-10-16T12:18:44;100808.13;;;11.83;44.78
75312;BME280;63906;55.686;37.532;2022-10-16T12:23:51;100781.63;;;11.68;45.17
75312;BME280;63906;55.686;37.532;2022-10-16T12:28:53;100791.97;;;11.78;44.94
75312;BME280;63906;55.686;37.532;2022-10-16T12:34:02;100747.03;;;11.47;45.38
75312;BME280;63906;55.686;37.532;2022-10-16T12:39:03;100789.53;;;11.68;45.96
75312;BME280;63906;55.686;37.532;2022-10-16T12:44:03;100784.41;;;11.75;45.38
75312;BME280;63906;55.686;37.532;2022-10-16T12:54:26;100786.34;;;11.89;45.18
75312;BME280;63906;55.686;37.532;2022-10-16T13:26:06;100792.16;;;11.60;46.03
75312;BME280;63906;55.686;37.532;2022-10-16T13:31:17;100764.19;;;11.26;46.19
75312;BME280;63906;55.686;37.532;2022-10-16T13:36:25;100769.13;;;11.38;45.95
75312;BME280;63906;55.686;37.532;2022-10-16T13:41:26;100788.25;;;11.40;46.16
75312;BME280;63906;55.686;37.532;2022-10-16T13:46:26;100795.31;;;11.23;46.82
75312;BME280;63906;55.686;37.532;2022-10-16T13:51:28;100785.94;;;11.04;47.21
75312;BME280;63906;55.686;37.532;2022-10-16T13:56:31;100764.19;;;10.69;47.39
75312;BME280;63906;55.686;37.532;2022-10-16T14:01:39;100774.72;;;10.69;48.39
75312;BME280;63906;55.686;37.532;2022-10-16T14:06:43;100777.59;;;10.42;49.16
75312;BME280;63906;55.686;37.532;2022-10-16T14:11:50;100795.03;;;10.35;48.99
75312;BME280;63906;55.686;37.532;2022-10-16T14:16:51;100782.75;;;10.17;49.36
75312;BME280;63906;55.686;37.532;2022-10-16T14:21:52;100770.13;;;9.87;49.89
75312;BME280;63906;55.686;37.532;2022-10-16T14:26:53;100801.00;;;9.85;51.60
75312;BME280;63906;55.686;37.532;2022-10-16T14:31:59;100793.19;;;9.67;51.57
75312;BME280;63906;55.686;37.532;2022-10-16T14:37:08;100773.19;;;9.48;51.15
75312;BME280;63906;55.686;37.532;2022-10-16T14:42:16;100798.75;;;9.38;52.58
75312;BME280;63906;55.686;37.532;2022-10-16T14:47:20;100802.66;;;9.16;52.86
75312;BME280;63906;55.686;37.532;2022-10-16T14:52:24;100795.25;;;9.11;52.67
75312;BME280;63906;55.686;37.532;2022-10-16T14:57:27;100796.22;;;9.10;53.02
75312;BME280;63906;55.686;37.532;2022-10-16T15:02:33;100774.53;;;9.08;52.93
75312;BME280;63906;55.686;37.532;2022-10-16T15:07:34;100797.63;;;9.23;53.50
75312;BME280;63906;55.686;37.532;2022-10-16T15:12:35;100775.38;;;9.09;53.13
75312;BME280;63906;55.686;37.532;2022-10-16T15:17:35;100802.59;;;9.26;52.70
75312;BME280;63906;55.686;37.532;2022-10-16T15:22:36;100800.03;;;9.34;52.79
75312;BME280;63906;55.686;37.532;2022-10-16T15:27:36;100795.50;;;9.44;52.34
75312;BME280;63906;55.686;37.532;2022-10-16T15:32:40;100790.25;;;9.44;52.59
75312;BME280;63906;55.686;37.532;2022-10-16T15:37:41;100791.59;;;9.48;51.37
75312;BME280;63906;55.686;37.532;2022-10-16T15:42:41;100786.94;;;9.42;52.23
75312;BME280;63906;55.686;37.532;2022-10-16T15:47:42;100796.47;;;9.43;52.09
75312;BME280;63906;55.686;37.532;2022-10-16T15:52:43;100765.81;;;9.26;51.71
75312;BME280;63906;55.686;37.532;2022-10-16T15:57:45;100768.28;;;9.27;52.32
75312;BME280;63906;55.686;37.532;2022-10-16T16:02:50;100772.72;;;9.27;51.62
75312;BME280;63906;55.686;37.532;2022-10-16T16:07:51;100774.75;;;9.33;51.97
75312;BME280;63906;55.686;37.532;2022-10-16T16:12:52;100776.94;;;9.20;52.39
75312;BME280;63906;55.686;37.532;2022-10-16T16:17:53;100777.97;;;9.27;51.88
75312;BME280;63906;55.686;37.532;2022-10-16T16:22:53;100782.69;;;9.23;52.25
75312;BME280;63906;55.686;37.532;2022-10-16T16:27:54;100754.25;;;9.18;51.96
75312;BME280;63906;55.686;37.532;2022-10-16T16:32:54;100774.03;;;9.31;51.60
75312;BME280;63906;55.686;37.532;2022-10-16T16:37:55;100782.84;;;9.22;52.27
75312;BME280;63906;55.686;37.532;2022-10-16T16:42:55;100780.50;;;9.18;52.38
75312;BME280;63906;55.686;37.532;2022-10-16T16:47:56;100785.34;;;9.05;52.65
75312;BME280;63906;55.686;37.532;2022-10-16T16:52:56;100793.91;;;9.07;53.02
75312;BME280;63906;55.686;37.532;2022-10-16T16:57:57;100795.34;;;9.02;52.80
75312;BME280;63906;55.686;37.532;2022-10-16T17:03:18;100795.63;;;8.99;53.43
75312;BME280;63906;55.686;37.532;2022-10-16T17:08:21;100777.56;;;8.78;53.34
75312;BME280;63906;55.686;37.532;2022-10-16T17:13:26;100782.34;;;9.00;53.01
75312;BME280;63906;55.686;37.532;2022-10-16T17:18:27;100788.78;;;8.88;53.67
75312;BME280;63906;55.686;37.532;2022-10-16T17:23:28;100788.34;;;8.75;54.01
75312;BME280;63906;55.686;37.532;2022-10-16T17:28:28;100782.13;;;8.76;53.49
75312;BME280;63906;55.686;37.532;2022-10-16T17:33:29;100798.00;;;8.74;53.46
75312;BME280;63906;55.686;37.532;2022-10-16T17:38:29;100788.88;;;8.78;53.89
75312;BME280;63906;55.686;37.532;2022-10-16T17:43:30;100805.50;;;8.69;54.17
75312;BME280;63906;55.686;37.532;2022-10-16T17:48:30;100808.94;;;8.52;54.35
75312;BME280;63906;55.686;37.532;2022-10-16T17:53:31;100807.03;;;8.44;54.36
75312;BME280;63906;55.686;37.532;2022-10-16T17:58:32;100792.31;;;8.33;54.27
75312;BME280;63906;55.686;37.532;2022-10-16T18:03:33;100786.03;;;8.17;54.72
75312;BME280;63906;55.686;37.532;2022-10-16T18:08:34;100764.84;;;8.00;55.07
75312;BME280;63906;55.686;37.532;2022-10-16T18:13:37;100787.53;;;8.19;55.13
75312;BME280;63906;55.686;37.532;2022-10-16T18:18:39;100792.25;;;8.16;55.19
75312;BME280;63906;55.686;37.532;2022-10-16T18:23:40;100774.00;;;7.96;55.26
75312;BME280;63906;55.686;37.532;2022-10-16T18:28:42;100768.75;;;7.96;55.27
75312;BME280;63906;55.686;37.532;2022-10-16T18:33:44;100746.59;;;7.81;55.81
75312;BME280;63906;55.686;37.532;2022-10-16T18:38:49;100793.69;;;8.00;55.38
75312;BME280;63906;55.686;37.532;2022-10-16T18:43:50;100783.78;;;7.94;55.45
75312;BME280;63906;55.686;37.532;2022-10-16T18:48:51;100785.06;;;7.90;55.70
75312;BME280;63906;55.686;37.532;2022-10-16T18:53:56;100776.78;;;8.13;55.06
75312;BME280;63906;55.686;37.532;2022-10-16T18:58:59;100756.78;;;7.84;55.55
75312;BME280;63906;55.686;37.532;2022-10-16T19:04:04;100776.63;;;7.96;55.21
75312;BME280;63906;55.686;37.532;2022-10-16T19:09:05;100778.53;;;7.94;55.51
75312;BME280;63906;55.686;37.532;2022-10-16T19:14:06;100757.88;;;7.91;54.70
75312;BME280;63906;55.686;37.532;2022-10-16T19:19:09;100780.00;;;8.06;54.92
75312;BME280;63906;55.686;37.532;2022-10-16T19:24:12;100763.75;;;8.03;54.78
75312;BME280;63906;55.686;37.532;2022-10-16T19:29:13;100772.72;;;8.00;55.38
75312;BME280;63906;55.686;37.532;2022-10-16T19:34:13;100746.19;;;7.76;55.28
75312;BME280;63906;55.686;37.532;2022-10-16T19:39:15;100757.06;;;7.81;55.17
75312;BME280;63906;55.686;37.532;2022-10-16T19:44:17;100763.38;;;7.88;55.10
75312;BME280;63906;55.686;37.532;2022-10-16T19:49:18;100779.09;;;7.88;55.34
75312;BME280;63906;55.686;37.532;2022-10-16T19:54:20;100771.38;;;7.96;54.90
75312;BME280;63906;55.686;37.532;2022-10-16T19:59:21;100772.13;;;7.79;55.26
75312;BME280;63906;55.686;37.532;2022-10-16T20:04:21;100760.97;;;7.77;55.14
75312;BME280;63906;55.686;37.532;2022-10-16T20:09:22;100774.06;;;7.77;54.94
75312;BME280;63906;55.686;37.532;2022-10-16T20:14:22;100763.44;;;7.69;55.27
75312;BME280;63906;55.686;37.532;2022-10-16T20:19:23;100765.16;;;7.50;56.38
75312;BME280;63906;55.686;37.532;2022-10-16T20:24:23;100765.16;;;7.60;56.09
75312;BME280;63906;55.686;37.532;2022-10-16T20:29:24;100754.47;;;7.34;56.06
75312;BME280;63906;55.686;37.532;2022-10-16T20:34:24;100728.69;;;7.29;55.91
75312;BME280;63906;55.686;37.532;2022-10-16T20:39:25;100749.22;;;7.34;56.32
75312;BME280;63906;55.686;37.532;2022-10-16T20:44:25;100724.16;;;7.12;56.38
75312;BME280;63906;55.686;37.532;2022-10-16T20:49:26;100769.09;;;7.27;56.38
75312;BME280;63906;55.686;37.532;2022-10-16T20:54:28;100752.81;;;7.23;57.10
75312;BME280;63906;55.686;37.532;2022-10-16T20:59:28;100744.84;;;7.06;57.49
75312;BME280;63906;55.686;37.532;2022-10-16T21:04:29;100740.16;;;6.99;57.01
75312;BME280;63906;55.686;37.532;2022-10-16T21:09:29;100740.47;;;6.96;56.96
75312;BME280;63906;55.686;37.532;2022-10-16T21:14:30;100750.50;;;7.01;57.06
75312;BME280;63906;55.686;37.532;2022-10-16T21:19:31;100753.41;;;6.98;57.75
75312;BME280;63906;55.686;37.532;2022-10-16T21:24:32;100752.00;;;6.94;57.82
75312;BME280;63906;55.686;37.532;2022-10-16T21:29:33;100721.56;;;6.64;58.16
75312;BME280;63906;55.686;37.532;2022-10-16T21:34:34;100725.56;;;6.68;58.31
75312;BME280;63906;55.686;37.532;2022-10-16T21:39:34;100728.03;;;6.89;57.92
75312;BME280;63906;55.686;37.532;2022-10-16T21:44:35;100708.50;;;6.73;57.93
75312;BME280;63906;55.686;37.532;2022-10-16T21:49:35;100750.38;;;7.03;57.90
75312;BME280;63906;55.686;37.532;2022-10-16T21:54:36;100738.22;;;7.01;57.93
75312;BME280;63906;55.686;37.532;2022-10-16T21:59:36;100747.88;;;7.01;57.67
75312;BME280;63906;55.686;37.532;2022-10-16T22:04:37;100759.16;;;7.01;57.76
75312;BME280;63906;55.686;37.532;2022-10-16T22:09:37;100760.56;;;7.06;58.00
75312;BME280;63906;55.686;37.532;2022-10-16T22:14:38;100743.75;;;6.98;57.63
75312;BME280;63906;55.686;37.532;2022-10-16T22:19:39;100742.38;;;6.85;58.09
75312;BME280;63906;55.686;37.532;2022-10-16T22:24:39;100744.16;;;6.74;57.95
75312;BME280;63906;55.686;37.532;2022-10-16T22:29:40;100729.97;;;6.58;58.16
75312;BME280;63906;55.686;37.532;2022-10-16T22:34:41;100743.31;;;6.64;58.75
75312;BME280;63906;55.686;37.532;2022-10-16T22:39:41;100750.63;;;6.70;58.63
75312;BME280;63906;55.686;37.532;2022-10-16T22:44:42;100744.00;;;6.57;58.91
75312;BME280;63906;55.686;37.532;2022-10-16T22:49:42;100735.72;;;6.32;59.68
75312;BME280;63906;55.686;37.532;2022-10-16T22:54:43;100747.59;;;6.46;59.20
75312;BME280;63906;55.686;37.532;2022-10-16T22:59:43;100742.06;;;6.39;59.63
75312;BME280;63906;55.686;37.532;2022-10-16T23:04:44;100745.38;;;6.41;59.64
75312;BME280;63906;55.686;37.532;2022-10-16T23:09:44;100739.59;;;6.38;59.27
75312;BME280;63906;55.686;37.532;2022-10-16T23:14:45;100709.31;;;6.45;59.05
75312;BME280;63906;55.686;37.532;2022-10-16T23:19:45;100693.09;;;6.61;58.41
75312;BME280;63906;55.686;37.532;2022-10-16T23:24:46;100725.16;;;6.82;58.16
75312;BME280;63906;55.686;37.532;2022-10-16T23:29:46;100722.53;;;6.82;58.41
75312;BME280;63906;55.686;37.532;2022-10-16T23:34:47;100716.50;;;6.72;58.64
75312;BME280;63906;55.686;37.532;2022-10-16T23:39:49;100712.22;;;6.81;58.56
75312;BME280;63906;55.686;37.532;2022-10-16T23:44:49;100719.53;;;6.77;58.67
75312;BME280;63906;55.686;37.532;2022-10-16T23:49:50;100700.63;;;6.64;58.95
75312;BME280;63906;55.686;37.532;2022-10-16T23:54:50;100702.72;;;6.80;59.02
75312;BME280;63906;55.686;37.532;2022-10-16T23:59:51;100698.72;;;6.66;58.81
